Time;durP1;ratioP1;P1;durP2;ratioP2;P2;SDS_P1;SDS_P2;PMS_P1;PMS_P2;Temp;Humidity;BMP_temperature;BMP_pressure;BME280_temperature;BME280_humidity;BME280_pressure;Samples;Min_cycle;Max_cycle;Signal;HPM_P1;HPM_P2
2022/08/09 00:01:02;;;;;;;12.38;6.68;;;;;;;;;;5051034;28;20025;-74
2022/08/09 00:04:06;;;;;;;12.18;6.15;;;;;;;;;;5050794;28;20045;-74
2022/08/09 00:07:10;;;;;;;12.23;6.93;;;;;;;;;;5051147;28;20033;-74
2022/08/09 00:10:14;;;;;;;11.20;6.35;;;;;;;;;;5050129;28;20041;-74
2022/08/09 00:13:19;;;;;;;9.48;6.68;;;;;;;;;;5050933;28;20314;-74
2022/08/09 00:16:23;;;;;;;13.73;7.45;;;;;;;;;;5050863;28;20041;-74
2022/08/09 00:19:28;;;;;;;12.57;7.50;;;;;;;;;;5050470;28;20037;-74
2022/08/09 00:22:32;;;;;;;19.20;7.97;;;;;;;;;;5050947;28;20536;-75
2022/08/09 00:25:36;;;;;;;10.48;6.88;;;;;;;;;;5050084;28;20046;-75
2022/08/09 00:28:41;;;;;;;10.35;7.20;;;;;;;;;;5050535;28;20037;-75
2022/08/09 00:31:45;;;;;;;8.25;7.22;;;;;;;;;;5050935;28;20037;-74
2022/08/09 00:34:49;;;;;;;11.60;7.80;;;;;;;;;;5049780;28;20373;-74
2022/08/09 00:37:54;;;;;;;12.07;8.38;;;;;;;;;;5050468;28;20539;-75
2022/08/09 00:40:58;;;;;;;9.48;8.45;;;;;;;;;;5050410;28;20037;-74
2022/08/09 00:44:02;;;;;;;11.73;8.30;;;;;;;;;;5050419;28;20040;-74
2022/08/09 00:47:07;;;;;;;12.55;8.40;;;;;;;;;;5050534;28;20041;-74
2022/08/09 00:50:11;;;;;;;11.23;8.45;;;;;;;;;;5050566;28;20040;-75
2022/08/09 00:53:16;;;;;;;10.15;8.70;;;;;;;;;;5049668;28;20519;-74
2022/08/09 00:56:20;;;;;;;11.82;8.32;;;;;;;;;;5049625;28;20041;-74
2022/08/09 00:59:24;;;;;;;15.52;8.60;;;;;;;;;;5050340;28;20040;-74
2022/08/09 01:02:30;;;;;;;11.13;8.43;;;;;;;;;;5050487;28;20033;-74
2022/08/09 01:05:40;;;;;;;10.98;8.32;;;;;;;;;;5049414;28;20052;-75
2022/08/09 01:09:03;;;;;;;11.20;7.82;;;;;;;;;;5050411;28;20041;-75
2022/08/09 01:12:12;;;;;;;10.70;8.43;;;;;;;;;;5050221;28;20046;-75
2022/08/09 01:15:19;;;;;;;15.88;8.18;;;;;;;;;;5050007;28;20037;-75
2022/08/09 01:18:26;;;;;;;8.95;7.78;;;;;;;;;;5050455;28;20077;-74
2022/08/09 01:21:43;;;;;;;10.10;7.90;;;;;;;;;;5052209;28;20033;-75
2022/08/09 01:25:00;;;;;;;12.68;7.88;;;;;;;;;;5053826;28;20407;-75
2022/08/09 01:28:05;;;;;;;9.85;7.70;;;;;;;;;;5053183;28;20503;-74
2022/08/09 01:31:11;;;;;;;11.15;8.35;;;;;;;;;;5053640;28;20045;-74
2022/08/09 01:34:19;;;;;;;13.13;8.07;;;;;;;;;;5053963;28;20041;-74
2022/08/09 01:37:24;;;;;;;9.02;7.93;;;;;;;;;;5053087;28;20048;-75
2022/08/09 01:40:29;;;;;;;12.55;7.88;;;;;;;;;;5052558;28;20386;-74
2022/08/09 01:43:34;;;;;;;11.25;8.48;;;;;;;;;;5052595;28;20303;-74
2022/08/09 01:46:44;;;;;;;12.18;8.15;;;;;;;;;;5053519;28;20044;-74
2022/08/09 01:49:50;;;;;;;12.00;8.20;;;;;;;;;;5052726;28;20044;-74
2022/08/09 01:52:55;;;;;;;11.90;8.05;;;;;;;;;;5053171;28;20397;-74
2022/08/09 01:55:59;;;;;;;12.63;8.38;;;;;;;;;;5053223;28;20052;-74
2022/08/09 01:59:05;;;;;;;12.05;8.30;;;;;;;;;;5053390;28;20029;-74
2022/08/09 02:02:10;;;;;;;10.63;7.85;;;;;;;;;;5052866;28;20041;-74
2022/08/09 02:05:19;;;;;;;11.43;7.95;;;;;;;;;;5053315;28;20033;-74
2022/08/09 02:08:24;;;;;;;12.80;8.52;;;;;;;;;;5053237;28;20392;-74
2022/08/09 02:11:29;;;;;;;10.23;8.48;;;;;;;;;;5052900;28;20037;-75
2022/08/09 02:14:33;;;;;;;11.05;8.02;;;;;;;;;;5052646;28;20577;-74
2022/08/09 02:17:39;;;;;;;10.82;8.43;;;;;;;;;;5052810;28;20048;-74
2022/08/09 02:20:45;;;;;;;15.38;9.07;;;;;;;;;;5052838;28;20042;-74
2022/08/09 02:23:52;;;;;;;10.60;8.90;;;;;;;;;;5052046;28;20513;-74
2022/08/09 02:27:01;;;;;;;12.65;8.85;;;;;;;;;;5052759;28;20039;-74
2022/08/09 02:30:06;;;;;;;14.15;9.27;;;;;;;;;;5052755;28;20054;-74
2022/08/09 02:33:13;;;;;;;12.52;9.30;;;;;;;;;;5051684;28;20033;-75
2022/08/09 02:36:19;;;;;;;20.58;9.60;;;;;;;;;;5051435;28;20053;-74
2022/08/09 02:39:27;;;;;;;12.82;9.45;;;;;;;;;;5052542;28;20048;-74
2022/08/09 02:42:33;;;;;;;10.80;9.70;;;;;;;;;;5052614;28;20045;-74
2022/08/09 02:45:40;;;;;;;13.02;9.38;;;;;;;;;;5052522;28;20044;-74
2022/08/09 02:48:46;;;;;;;15.95;9.43;;;;;;;;;;5052329;28;20041;-74
2022/08/09 02:51:53;;;;;;;16.25;9.60;;;;;;;;;;5051449;28;20378;-74
2022/08/09 02:54:58;;;;;;;12.85;9.80;;;;;;;;;;5052345;28;20037;-74
2022/08/09 02:58:03;;;;;;;11.00;9.20;;;;;;;;;;5052951;28;20055;-74
2022/08/09 03:01:08;;;;;;;12.75;9.55;;;;;;;;;;5039562;28;20040;-74
2022/08/09 03:04:13;;;;;;;12.98;10.23;;;;;;;;;;5052104;28;20140;-74
2022/08/09 03:07:19;;;;;;;15.35;10.00;;;;;;;;;;5051082;28;20040;-74
2022/08/09 03:10:24;;;;;;;22.65;9.60;;;;;;;;;;5051234;28;20047;-74
2022/08/09 03:13:29;;;;;;;14.63;10.07;;;;;;;;;;5050731;28;20048;-74
2022/08/09 03:16:34;;;;;;;22.58;10.10;;;;;;;;;;5051570;28;20056;-74
2022/08/09 03:19:39;;;;;;;24.77;10.50;;;;;;;;;;5039579;28;20207;-74
2022/08/09 03:22:46;;;;;;;15.98;9.75;;;;;;;;;;5051044;28;20059;-74
2022/08/09 03:25:50;;;;;;;13.30;9.60;;;;;;;;;;5051613;28;20172;-74
2022/08/09 03:28:58;;;;;;;18.83;10.07;;;;;;;;;;5051746;28;20466;-74
2022/08/09 03:32:02;;;;;;;14.77;10.65;;;;;;;;;;5051423;28;20051;-74
2022/08/09 03:35:10;;;;;;;16.48;9.38;;;;;;;;;;5050689;28;20055;-74
2022/08/09 03:38:14;;;;;;;27.38;12.13;;;;;;;;;;5050623;28;20060;-74
2022/08/09 03:41:19;;;;;;;24.92;10.50;;;;;;;;;;5050361;28;20048;-74
2022/08/09 03:44:24;;;;;;;15.90;10.45;;;;;;;;;;5051351;28;20044;-74
2022/08/09 03:47:29;;;;;;;15.73;9.95;;;;;;;;;;5051260;28;20386;-74
2022/08/09 03:50:34;;;;;;;13.38;9.50;;;;;;;;;;5050145;28;20045;-74
2022/08/09 03:53:39;;;;;;;20.25;10.38;;;;;;;;;;5050366;28;20509;-74
2022/08/09 03:56:43;;;;;;;12.75;10.23;;;;;;;;;;5051040;28;20052;-74
2022/08/09 03:59:49;;;;;;;13.93;9.95;;;;;;;;;;5051018;28;20389;-74
2022/08/09 04:02:54;;;;;;;13.10;9.35;;;;;;;;;;5050303;28;20056;-74
2022/08/09 04:05:58;;;;;;;15.05;9.95;;;;;;;;;;5050814;28;20067;-74
2022/08/09 04:09:05;;;;;;;13.80;9.73;;;;;;;;;;5050780;28;20057;-74
2022/08/09 04:12:20;;;;;;;17.88;10.32;;;;;;;;;;5050122;28;20045;-74
2022/08/09 04:15:25;;;;;;;19.73;9.70;;;;;;;;;;5050966;28;20056;-74
2022/08/09 04:18:30;;;;;;;15.18;9.93;;;;;;;;;;5050766;28;20476;-74
2022/08/09 04:21:34;;;;;;;18.98;10.13;;;;;;;;;;5050727;28;20531;-74
2022/08/09 04:24:39;;;;;;;23.77;9.73;;;;;;;;;;5050688;28;20048;-74
2022/08/09 04:27:43;;;;;;;16.02;10.45;;;;;;;;;;5050748;28;20037;-74
2022/08/09 04:30:47;;;;;;;11.45;9.95;;;;;;;;;;5049804;28;20056;-74
2022/08/09 04:33:52;;;;;;;17.27;9.45;;;;;;;;;;5050883;28;20029;-74
2022/08/09 04:36:57;;;;;;;16.60;10.32;;;;;;;;;;5050574;28;20044;-74
2022/08/09 04:40:01;;;;;;;15.05;9.27;;;;;;;;;;5049262;28;20492;-74
2022/08/09 04:43:06;;;;;;;13.05;9.63;;;;;;;;;;5050909;28;20041;-74
2022/08/09 04:46:10;;;;;;;20.88;9.75;;;;;;;;;;5049776;28;20029;-74
2022/08/09 04:49:15;;;;;;;16.23;10.20;;;;;;;;;;5049653;28;20538;-75
2022/08/09 04:52:20;;;;;;;11.32;8.73;;;;;;;;;;5050759;28;20508;-74
2022/08/09 04:55:24;;;;;;;11.50;9.45;;;;;;;;;;5050751;28;20036;-74
2022/08/09 04:58:29;;;;;;;26.00;10.48;;;;;;;;;;5054606;28;20066;-74
2022/08/09 05:01:33;;;;;;;17.17;9.38;;;;;;;;;;5054379;28;20044;-75
2022/08/09 05:04:38;;;;;;;15.38;8.77;;;;;;;;;;5053641;28;20037;-75
2022/08/09 05:07:42;;;;;;;20.65;9.68;;;;;;;;;;5053699;28;20374;-75
2022/08/09 05:10:47;;;;;;;15.75;9.77;;;;;;;;;;5053357;28;20044;-75
2022/08/09 05:13:51;;;;;;;22.58;10.13;;;;;;;;;;5054007;28;20408;-75
2022/08/09 05:16:58;;;;;;;19.55;10.90;;;;;;;;;;5053778;28;20071;-75
2022/08/09 05:20:03;;;;;;;20.33;10.98;;;;;;;;;;5054023;28;20040;-75
2022/08/09 05:23:07;;;;;;;14.57;10.55;;;;;;;;;;5052980;28;20040;-74
2022/08/09 05:26:12;;;;;;;23.50;11.27;;;;;;;;;;5053138;28;20052;-75
2022/08/09 05:29:18;;;;;;;21.83;12.68;;;;;;;;;;5053911;28;20048;-74
2022/08/09 05:32:22;;;;;;;16.88;11.77;;;;;;;;;;5053717;28;20052;-74
2022/08/09 05:35:27;;;;;;;25.67;13.70;;;;;;;;;;5053794;28;20112;-74
2022/08/09 05:38:32;;;;;;;30.30;17.30;;;;;;;;;;5053338;28;20052;-74
2022/08/09 05:41:36;;;;;;;46.85;27.65;;;;;;;;;;5053341;28;20052;-74
2022/08/09 05:44:41;;;;;;;25.10;18.17;;;;;;;;;;5053711;28;20052;-72
2022/08/09 05:47:45;;;;;;;30.95;13.32;;;;;;;;;;5053212;28;20048;-73
2022/08/09 05:50:49;;;;;;;16.80;11.20;;;;;;;;;;5053553;28;20620;-68
2022/08/09 05:53:54;;;;;;;26.30;10.90;;;;;;;;;;5053354;28;20040;-67
2022/08/09 05:56:59;;;;;;;34.67;11.82;;;;;;;;;;5053126;28;20048;-67
2022/08/09 06:00:05;;;;;;;38.83;13.40;;;;;;;;;;5052961;28;20187;-67
2022/08/09 06:03:15;;;;;;;25.48;11.98;;;;;;;;;;5053405;28;20052;-67
2022/08/09 06:06:20;;;;;;;23.42;10.98;;;;;;;;;;5052039;28;20396;-67
2022/08/09 06:09:24;;;;;;;25.38;10.35;;;;;;;;;;5052699;28;20107;-66
2022/08/09 06:12:29;;;;;;;17.95;10.52;;;;;;;;;;5052773;28;20052;-67
2022/08/09 06:15:33;;;;;;;20.77;11.10;;;;;;;;;;5052714;28;20064;-67
2022/08/09 06:18:37;;;;;;;21.70;10.75;;;;;;;;;;5052730;28;20055;-67
2022/08/09 06:21:42;;;;;;;20.85;10.43;;;;;;;;;;5053160;28;20500;-66
2022/08/09 06:24:46;;;;;;;22.30;11.68;;;;;;;;;;5052617;28;20378;-66
2022/08/09 06:27:50;;;;;;;21.52;10.43;;;;;;;;;;5053112;28;20491;-66
2022/08/09 06:30:54;;;;;;;15.13;10.02;;;;;;;;;;5052469;28;20052;-66
2022/08/09 06:33:59;;;;;;;18.52;9.57;;;;;;;;;;5052643;28;20047;-65
2022/08/09 06:37:04;;;;;;;17.85;9.45;;;;;;;;;;5052427;28;20051;-65
2022/08/09 06:40:09;;;;;;;14.32;10.20;;;;;;;;;;5052161;28;20052;-65
2022/08/09 06:43:13;;;;;;;19.38;9.73;;;;;;;;;;5052382;28;20404;-65
2022/08/09 06:46:17;;;;;;;19.77;9.63;;;;;;;;;;5051682;28;20043;-66
2022/08/09 06:49:22;;;;;;;17.70;9.70;;;;;;;;;;5052205;28;20041;-65
2022/08/09 06:52:26;;;;;;;17.85;9.65;;;;;;;;;;5052082;28;20037;-65
2022/08/09 06:55:31;;;;;;;18.33;9.40;;;;;;;;;;5051182;28;20040;-65
2022/08/09 06:58:37;;;;;;;11.85;9.30;;;;;;;;;;5051966;28;20044;-66
2022/08/09 07:01:41;;;;;;;12.10;8.88;;;;;;;;;;5051751;28;20044;-66
2022/08/09 07:04:45;;;;;;;10.38;7.82;;;;;;;;;;5052071;28;20045;-65
2022/08/09 07:07:49;;;;;;;11.02;7.57;;;;;;;;;;5051153;28;20041;-66
2022/08/09 07:10:54;;;;;;;13.60;7.47;;;;;;;;;;5051971;28;20049;-66
2022/08/09 07:13:58;;;;;;;15.48;8.27;;;;;;;;;;5051927;28;20033;-66
2022/08/09 07:17:02;;;;;;;14.82;8.77;;;;;;;;;;5051553;28;20049;-65
2022/08/09 07:20:08;;;;;;;18.33;8.52;;;;;;;;;;5051185;28;20037;-66
2022/08/09 07:23:12;;;;;;;11.43;8.50;;;;;;;;;;5051385;28;20045;-66
2022/08/09 07:26:17;;;;;;;21.30;10.05;;;;;;;;;;5051506;28;20571;-65
2022/08/09 07:29:21;;;;;;;14.43;8.73;;;;;;;;;;5051131;28;20067;-66
2022/08/09 07:32:28;;;;;;;14.93;8.40;;;;;;;;;;5051494;28;20044;-66
2022/08/09 07:35:33;;;;;;;15.80;7.93;;;;;;;;;;5050986;28;20037;-66
2022/08/09 07:38:37;;;;;;;13.80;8.80;;;;;;;;;;5050234;28;20041;-65
2022/08/09 07:41:41;;;;;;;20.98;11.32;;;;;;;;;;5050805;28;20045;-66
2022/08/09 07:44:46;;;;;;;15.50;10.88;;;;;;;;;;5051301;28;20044;-66
2022/08/09 07:47:50;;;;;;;19.00;10.30;;;;;;;;;;5051226;28;20040;-66
2022/08/09 07:50:54;;;;;;;19.08;10.40;;;;;;;;;;5051227;28;20052;-66
2022/08/09 07:53:58;;;;;;;21.45;9.88;;;;;;;;;;5051065;28;20056;-66
2022/08/09 07:57:03;;;;;;;20.35;11.30;;;;;;;;;;5050839;28;20049;-68
2022/08/09 08:00:08;;;;;;;25.90;12.25;;;;;;;;;;5051533;28;20039;-66
2022/08/09 08:03:18;;;;;;;21.73;11.48;;;;;;;;;;5051074;28;20060;-67
2022/08/09 08:06:23;;;;;;;20.58;11.27;;;;;;;;;;5050471;28;20036;-67
2022/08/09 08:09:27;;;;;;;43.88;12.98;;;;;;;;;;5049822;28;20044;-66
2022/08/09 08:12:32;;;;;;;17.33;10.73;;;;;;;;;;5050712;28;20051;-67
2022/08/09 08:15:36;;;;;;;23.85;11.90;;;;;;;;;;5050425;28;20392;-66
2022/08/09 08:18:40;;;;;;;15.45;11.02;;;;;;;;;;5049702;28;20284;-66
2022/08/09 08:21:45;;;;;;;19.15;11.80;;;;;;;;;;5049866;28;20038;-67
2022/08/09 08:24:54;;;;;;;19.85;11.70;;;;;;;;;;5050895;28;20052;-66
2022/08/09 08:27:59;;;;;;;20.98;12.30;;;;;;;;;;5051023;28;20040;-69
2022/08/09 08:31:03;;;;;;;29.73;12.23;;;;;;;;;;5052374;28;20070;-73
2022/08/09 08:34:07;;;;;;;20.27;11.63;;;;;;;;;;5054026;28;20039;-71
2022/08/09 08:37:12;;;;;;;18.35;11.55;;;;;;;;;;5053969;28;20500;-70
2022/08/09 08:40:16;;;;;;;16.00;10.32;;;;;;;;;;5053910;28;20055;-69
2022/08/09 08:43:21;;;;;;;15.23;10.00;;;;;;;;;;5054278;28;20048;-70
2022/08/09 08:46:31;;;;;;;14.38;9.93;;;;;;;;;;5054743;28;20492;-69
2022/08/09 08:49:37;;;;;;;14.13;9.07;;;;;;;;;;5054134;28;20476;-69
2022/08/09 08:52:42;;;;;;;11.23;7.88;;;;;;;;;;5054588;28;20048;-69
2022/08/09 08:55:46;;;;;;;12.77;7.55;;;;;;;;;;5054535;28;20052;-69
2022/08/09 08:58:51;;;;;;;10.90;8.52;;;;;;;;;;5052639;28;20052;-70
2022/08/09 09:01:55;;;;;;;11.20;8.65;;;;;;;;;;5052919;28;20369;-70
2022/08/09 09:05:00;;;;;;;13.27;9.00;;;;;;;;;;5053802;28;20041;-71
2022/08/09 09:08:05;;;;;;;21.67;10.00;;;;;;;;;;5053837;28;20048;-71
2022/08/09 09:11:10;;;;;;;15.88;10.55;;;;;;;;;;5053534;28;20048;-71
2022/08/09 09:14:25;;;;;;;16.20;9.35;;;;;;;;;;5053994;28;20211;-71
2022/08/09 09:17:29;;;;;;;16.35;8.82;;;;;;;;;;5053704;28;20049;-71
2022/08/09 09:20:37;;;;;;;14.27;9.10;;;;;;;;;;5054020;28;20654;-71
2022/08/09 09:23:43;;;;;;;18.25;9.77;;;;;;;;;;5054116;28;20449;-71
2022/08/09 09:26:54;;;;;;;13.25;9.55;;;;;;;;;;5054225;28;20044;-71
2022/08/09 09:30:08;;;;;;;11.82;9.57;;;;;;;;;;5053711;28;20037;-71
2022/08/09 09:33:12;;;;;;;14.30;8.85;;;;;;;;;;5053471;28;20044;-71
2022/08/09 09:36:17;;;;;;;13.68;8.85;;;;;;;;;;5052450;28;20053;-71
2022/08/09 09:39:22;;;;;;;10.73;8.70;;;;;;;;;;5053687;28;20037;-71
2022/08/09 09:42:30;;;;;;;13.10;8.63;;;;;;;;;;5053289;28;20052;-71
2022/08/09 09:45:51;;;;;;;18.30;9.43;;;;;;;;;;5053749;28;20051;-71
2022/08/09 09:49:04;;;;;;;12.35;8.93;;;;;;;;;;5053259;28;20045;-69
2022/08/09 09:52:10;;;;;;;11.32;8.43;;;;;;;;;;5053286;28;20037;-69
2022/08/09 09:55:14;;;;;;;13.07;8.50;;;;;;;;;;5053483;28;20491;-72
2022/08/09 09:58:19;;;;;;;12.50;8.65;;;;;;;;;;5052979;28;20290;-71
2022/08/09 10:01:23;;;;;;;13.68;8.82;;;;;;;;;;5051639;28;20044;-72
2022/08/09 10:04:27;;;;;;;11.30;8.63;;;;;;;;;;5053242;28;20052;-71
2022/08/09 10:07:32;;;;;;;8.43;7.32;;;;;;;;;;5053054;28;20033;-70
2022/08/09 10:10:36;;;;;;;11.18;8.77;;;;;;;;;;5052617;28;20484;-69
2022/08/09 10:13:40;;;;;;;11.40;8.82;;;;;;;;;;5052634;28;20059;-72
2022/08/09 10:16:44;;;;;;;14.85;9.70;;;;;;;;;;5052414;28;20257;-69
2022/08/09 10:19:49;;;;;;;13.73;9.07;;;;;;;;;;5052433;28;20039;-69
2022/08/09 10:22:54;;;;;;;15.68;8.93;;;;;;;;;;5053015;28;20044;-69
2022/08/09 10:26:01;;;;;;;18.60;9.45;;;;;;;;;;5053037;28;20041;-72
2022/08/09 10:29:05;;;;;;;10.40;8.60;;;;;;;;;;5052390;28;20044;-71
2022/08/09 10:32:10;;;;;;;12.57;8.32;;;;;;;;;;5052583;28;20041;-71
2022/08/09 10:35:14;;;;;;;12.43;8.27;;;;;;;;;;5052463;28;20412;-71
2022/08/09 10:38:18;;;;;;;13.93;8.40;;;;;;;;;;5052513;28;20047;-71
2022/08/09 10:41:23;;;;;;;11.35;7.57;;;;;;;;;;5052484;28;20045;-72
2022/08/09 10:44:29;;;;;;;11.68;8.10;;;;;;;;;;5052268;28;20033;-69
2022/08/09 10:47:39;;;;;;;14.82;8.50;;;;;;;;;;5051901;28;20037;-69
2022/08/09 10:54:12;;;;;;;10.63;7.88;;;;;;;;;;5051440;28;20044;-70
2022/08/09 10:57:17;;;;;;;10.55;8.75;;;;;;;;;;5052194;28;20536;-70
2022/08/09 11:00:30;;;;;;;11.52;8.68;;;;;;;;;;5051950;28;20037;-70
2022/08/09 11:03:34;;;;;;;12.68;8.32;;;;;;;;;;5052126;28;20508;-69
2022/08/09 11:06:40;;;;;;;18.80;8.60;;;;;;;;;;5052123;28;20386;-70
2022/08/09 11:09:44;;;;;;;17.70;8.60;;;;;;;;;;5051521;28;20041;-70
2022/08/09 11:13:07;;;;;;;15.13;8.95;;;;;;;;;;5051660;28;20362;-70
2022/08/09 11:16:30;;;;;;;10.57;7.90;;;;;;;;;;5051568;28;20037;-70
2022/08/09 11:19:50;;;;;;;18.10;9.50;;;;;;;;;;5051418;28;20040;-70
2022/08/09 11:22:55;;;;;;;16.57;8.90;;;;;;;;;;5051705;28;20052;-69
2022/08/09 11:25:59;;;;;;;21.88;9.10;;;;;;;;;;5051647;28;20110;-70
2022/08/09 11:29:04;;;;;;;16.45;8.38;;;;;;;;;;5051252;28;20423;-70
2022/08/09 11:32:09;;;;;;;12.30;7.82;;;;;;;;;;5051429;28;20041;-70
2022/08/09 11:35:26;;;;;;;14.38;8.07;;;;;;;;;;5051440;28;20040;-70
2022/08/09 11:38:31;;;;;;;10.93;7.80;;;;;;;;;;5051124;28;20045;-70
2022/08/09 11:41:36;;;;;;;9.93;7.53;;;;;;;;;;5050936;28;20396;-71
2022/08/09 11:44:45;;;;;;;12.70;8.18;;;;;;;;;;5051296;28;20045;-71
2022/08/09 11:47:50;;;;;;;14.20;8.82;;;;;;;;;;5051324;28;20033;-69
2022/08/09 11:50:57;;;;;;;14.95;7.70;;;;;;;;;;5051083;28;20404;-69
2022/08/09 11:54:11;;;;;;;11.35;7.75;;;;;;;;;;5051094;28;20029;-70
2022/08/09 11:57:34;;;;;;;14.00;8.00;;;;;;;;;;5051193;28;20056;-68
2022/08/09 12:00:51;;;;;;;11.32;8.30;;;;;;;;;;5050822;28;20417;-69
2022/08/09 12:04:00;;;;;;;15.90;8.15;;;;;;;;;;5051060;28;20048;-70
2022/08/09 12:07:05;;;;;;;14.02;7.90;;;;;;;;;;5051018;28;20041;-69
2022/08/09 12:10:13;;;;;;;15.63;8.35;;;;;;;;;;5051032;28;20033;-70
2022/08/09 12:13:32;;;;;;;12.77;7.88;;;;;;;;;;5050695;28;20037;-69
2022/08/09 12:16:38;;;;;;;15.07;8.27;;;;;;;;;;5049811;28;20041;-70
2022/08/09 12:19:43;;;;;;;17.50;8.38;;;;;;;;;;5050693;28;20037;-70
2022/08/09 12:22:48;;;;;;;10.73;7.60;;;;;;;;;;5051032;28;20511;-70
2022/08/09 12:25:53;;;;;;;11.43;7.70;;;;;;;;;;5050803;28;20047;-70
2022/08/09 12:28:57;;;;;;;10.55;7.13;;;;;;;;;;5051161;28;20045;-70
2022/08/09 12:32:03;;;;;;;10.48;8.00;;;;;;;;;;5050589;28;20037;-69
2022/08/09 12:35:07;;;;;;;14.23;7.95;;;;;;;;;;5050791;28;20396;-70
2022/08/09 12:38:18;;;;;;;9.48;7.85;;;;;;;;;;5050622;28;20174;-69
2022/08/09 12:41:23;;;;;;;9.13;7.88;;;;;;;;;;5049603;28;20053;-70
2022/08/09 12:44:28;;;;;;;8.82;7.22;;;;;;;;;;5050601;28;20033;-69
2022/08/09 12:47:32;;;;;;;8.80;7.80;;;;;;;;;;5050733;28;20029;-70
2022/08/09 12:50:37;;;;;;;10.38;8.02;;;;;;;;;;5050705;28;20033;-69
2022/08/09 12:53:42;;;;;;;10.80;7.10;;;;;;;;;;5050440;28;20054;-69
2022/08/09 12:56:47;;;;;;;15.32;8.20;;;;;;;;;;5050517;28;20037;-69
2022/08/09 12:59:51;;;;;;;13.75;8.32;;;;;;;;;;5049786;28;20072;-70
2022/08/09 13:02:57;;;;;;;14.70;8.07;;;;;;;;;;5049615;28;20048;-70
2022/08/09 13:06:02;;;;;;;15.75;8.20;;;;;;;;;;5049274;28;20520;-70
2022/08/09 13:09:07;;;;;;;13.23;8.85;;;;;;;;;;5049953;28;20040;-71
2022/08/09 13:12:11;;;;;;;20.77;8.57;;;;;;;;;;5037873;28;20373;-71
2022/08/09 13:15:16;;;;;;;12.23;7.60;;;;;;;;;;5049757;28;20033;-71
2022/08/09 13:18:20;;;;;;;11.48;8.57;;;;;;;;;;5052471;28;20446;-71
2022/08/09 13:21:26;;;;;;;10.32;6.90;;;;;;;;;;5054513;28;20041;-71
2022/08/09 13:24:31;;;;;;;16.30;8.32;;;;;;;;;;5053848;28;20061;-72
2022/08/09 13:27:36;;;;;;;15.13;7.85;;;;;;;;;;5053866;28;20050;-69
2022/08/09 13:30:41;;;;;;;13.00;7.13;;;;;;;;;;5053999;28;20044;-68
2022/08/09 13:33:45;;;;;;;22.70;8.35;;;;;;;;;;5053776;28;20056;-72
2022/08/09 13:36:51;;;;;;;21.10;7.72;;;;;;;;;;5053680;28;20049;-69
2022/08/09 13:39:55;;;;;;;25.83;5.63;;;;;;;;;;5053028;28;20033;-69
2022/08/09 13:42:59;;;;;;;11.48;4.93;;;;;;;;;;5052914;28;20380;-69
2022/08/09 13:46:03;;;;;;;9.02;4.75;;;;;;;;;;5052661;28;20048;-70
2022/08/09 13:49:07;;;;;;;8.00;5.00;;;;;;;;;;5053866;28;20045;-69
2022/08/09 13:52:12;;;;;;;14.27;5.95;;;;;;;;;;5053452;28;20041;-70
2022/08/09 13:55:16;;;;;;;13.05;6.80;;;;;;;;;;5053509;28;20200;-69
2022/08/09 13:58:20;;;;;;;9.10;5.85;;;;;;;;;;5053034;28;20076;-69
2022/08/09 14:01:25;;;;;;;7.55;6.20;;;;;;;;;;5052035;28;20071;-69
2022/08/09 14:04:29;;;;;;;11.48;6.38;;;;;;;;;;5053224;28;20037;-66
2022/08/09 14:07:33;;;;;;;7.93;6.63;;;;;;;;;;5052984;28;20041;-67
2022/08/09 14:10:38;;;;;;;15.45;6.85;;;;;;;;;;5052996;28;20381;-70
2022/08/09 14:13:42;;;;;;;12.02;6.32;;;;;;;;;;5053146;28;20513;-70
2022/08/09 14:16:47;;;;;;;17.20;8.50;;;;;;;;;;5053248;28;20041;-65
2022/08/09 14:19:54;;;;;;;49.35;11.40;;;;;;;;;;5052931;28;20417;-67
2022/08/09 14:22:58;;;;;;;11.82;7.82;;;;;;;;;;5053035;28;20048;-68
2022/08/09 14:26:02;;;;;;;18.88;7.60;;;;;;;;;;5052533;28;20033;-70
2022/08/09 14:29:08;;;;;;;8.85;6.25;;;;;;;;;;5050769;28;20040;-68
2022/08/09 14:32:13;;;;;;;15.57;7.60;;;;;;;;;;5052840;28;20377;-74
2022/08/09 14:35:17;;;;;;;10.95;7.47;;;;;;;;;;5051931;28;20037;-69
2022/08/09 14:38:21;;;;;;;9.98;7.72;;;;;;;;;;5052012;28;20049;-69
2022/08/09 14:41:26;;;;;;;14.43;7.68;;;;;;;;;;5050005;28;20049;-69
2022/08/09 14:44:30;;;;;;;11.15;7.28;;;;;;;;;;5050260;28;20036;-69
2022/08/09 14:47:35;;;;;;;11.15;7.30;;;;;;;;;;5049783;28;20052;-69
2022/08/09 14:50:39;;;;;;;8.95;7.20;;;;;;;;;;5050433;28;20045;-69
2022/08/09 14:53:44;;;;;;;13.73;7.90;;;;;;;;;;5050010;28;20052;-70
2022/08/09 14:56:48;;;;;;;28.25;8.23;;;;;;;;;;5052081;28;20506;-70
2022/08/09 14:59:53;;;;;;;38.75;8.27;;;;;;;;;;5051901;28;20041;-69
2022/08/09 15:02:57;;;;;;;66.80;8.85;;;;;;;;;;5051975;28;20048;-69
2022/08/09 15:06:01;;;;;;;55.83;9.38;;;;;;;;;;5052071;28;20033;-70
2022/08/09 15:09:06;;;;;;;60.03;10.30;;;;;;;;;;5051675;28;20392;-70
2022/08/09 15:12:10;;;;;;;29.10;9.65;;;;;;;;;;5051626;28;20052;-70
2022/08/09 15:15:14;;;;;;;41.50;9.85;;;;;;;;;;5051989;28;20045;-69
2022/08/09 15:18:19;;;;;;;29.73;11.27;;;;;;;;;;5051432;28;20055;-69
2022/08/09 15:21:23;;;;;;;40.28;13.02;;;;;;;;;;5051822;28;20072;-68
2022/08/09 15:24:27;;;;;;;23.25;12.38;;;;;;;;;;5051733;28;20404;-68
2022/08/09 15:27:32;;;;;;;30.85;13.35;;;;;;;;;;5051750;28;20218;-68
2022/08/09 15:30:36;;;;;;;42.13;15.25;;;;;;;;;;5051704;28;20048;-69
2022/08/09 15:33:41;;;;;;;28.63;14.18;;;;;;;;;;5050774;28;20044;-69
2022/08/09 15:36:45;;;;;;;21.45;10.52;;;;;;;;;;5051451;28;20040;-69
2022/08/09 15:39:50;;;;;;;16.75;9.93;;;;;;;;;;5050745;28;20048;-69
2022/08/09 15:42:54;;;;;;;19.00;9.98;;;;;;;;;;5051416;28;20056;-70
2022/08/09 15:45:59;;;;;;;20.85;10.30;;;;;;;;;;5051239;28;20378;-70
2022/08/09 15:49:03;;;;;;;17.63;10.10;;;;;;;;;;5050985;28;20044;-70
2022/08/09 15:52:08;;;;;;;17.98;9.90;;;;;;;;;;5051449;28;20051;-70
2022/08/09 15:55:16;;;;;;;13.35;10.35;;;;;;;;;;5051155;28;20074;-70
2022/08/09 15:58:21;;;;;;;15.77;10.85;;;;;;;;;;5050932;28;20048;-70
2022/08/09 16:01:25;;;;;;;14.10;9.63;;;;;;;;;;5051358;28;20404;-70
2022/08/09 16:04:30;;;;;;;15.02;9.88;;;;;;;;;;5051064;28;20033;-70
2022/08/09 16:07:34;;;;;;;14.77;10.40;;;;;;;;;;5050835;28;20045;-70
2022/08/09 16:10:38;;;;;;;20.45;10.57;;;;;;;;;;5051044;28;20044;-70
2022/08/09 16:13:43;;;;;;;17.63;10.13;;;;;;;;;;5051038;28;20416;-70
2022/08/09 16:16:47;;;;;;;17.42;11.80;;;;;;;;;;5050621;28;20048;-70
2022/08/09 16:19:53;;;;;;;13.73;10.68;;;;;;;;;;5050500;28;20052;-69
2022/08/09 16:22:57;;;;;;;10.38;9.13;;;;;;;;;;5050663;28;20040;-69
2022/08/09 16:26:01;;;;;;;11.30;8.07;;;;;;;;;;5050962;28;20044;-69
2022/08/09 16:29:07;;;;;;;14.25;8.70;;;;;;;;;;5050591;28;20041;-69
2022/08/09 16:32:11;;;;;;;13.32;7.97;;;;;;;;;;5049879;28;20057;-69
2022/08/09 16:35:15;;;;;;;9.63;7.20;;;;;;;;;;5050419;28;20041;-69
2022/08/09 16:38:20;;;;;;;9.95;7.20;;;;;;;;;;5051001;28;20045;-70
2022/08/09 16:41:25;;;;;;;12.13;7.05;;;;;;;;;;5050252;28;20057;-70
2022/08/09 16:44:29;;;;;;;7.32;6.28;;;;;;;;;;5050413;28;20051;-69
2022/08/09 16:47:34;;;;;;;10.68;6.78;;;;;;;;;;5050122;28;20053;-70
2022/08/09 16:50:38;;;;;;;7.80;7.03;;;;;;;;;;5050681;28;20041;-70
2022/08/09 16:53:43;;;;;;;9.38;6.05;;;;;;;;;;5054558;28;20036;-70
2022/08/09 16:56:47;;;;;;;7.15;6.07;;;;;;;;;;5054560;28;20377;-70
2022/08/09 16:59:52;;;;;;;7.05;5.55;;;;;;;;;;5053952;28;20037;-70
2022/08/09 17:02:56;;;;;;;6.63;5.70;;;;;;;;;;5054033;28;20037;-70
2022/08/09 17:06:00;;;;;;;7.68;5.63;;;;;;;;;;5054073;28;20037;-68
2022/08/09 17:09:05;;;;;;;8.60;5.82;;;;;;;;;;5053797;28;20508;-68
2022/08/09 17:12:09;;;;;;;8.63;5.82;;;;;;;;;;5054288;28;20280;-70
2022/08/09 17:15:14;;;;;;;7.30;5.47;;;;;;;;;;5054208;28;20380;-71
2022/08/09 17:18:18;;;;;;;7.40;5.63;;;;;;;;;;5053664;28;20037;-70
2022/08/09 17:21:22;;;;;;;9.85;5.88;;;;;;;;;;5054057;28;20477;-70
2022/08/09 17:24:27;;;;;;;7.25;5.63;;;;;;;;;;5053815;28;20045;-71
2022/08/09 17:27:33;;;;;;;7.28;5.05;;;;;;;;;;5052962;28;20037;-70
2022/08/09 17:30:37;;;;;;;5.80;4.93;;;;;;;;;;5053894;28;20049;-71
2022/08/09 17:33:41;;;;;;;9.43;4.75;;;;;;;;;;5053650;28;20029;-71
2022/08/09 17:36:46;;;;;;;8.02;4.70;;;;;;;;;;5053782;28;20296;-71
2022/08/09 17:39:50;;;;;;;6.50;4.53;;;;;;;;;;5053531;28;20630;-71
2022/08/09 17:42:55;;;;;;;5.35;3.67;;;;;;;;;;5053446;28;20040;-70
2022/08/09 17:45:59;;;;;;;5.10;3.67;;;;;;;;;;5053477;28;20029;-69
2022/08/09 17:49:04;;;;;;;3.97;3.10;;;;;;;;;;5053405;28;20480;-69
2022/08/09 17:52:09;;;;;;;5.65;3.45;;;;;;;;;;5053122;28;20264;-69
2022/08/09 17:55:13;;;;;;;5.70;3.45;;;;;;;;;;5052091;28;20033;-73
2022/08/09 17:58:18;;;;;;;4.53;3.30;;;;;;;;;;5052812;28;20029;-71
2022/08/09 18:01:22;;;;;;;4.10;3.00;;;;;;;;;;5051659;28;20173;-71
2022/08/09 18:04:27;;;;;;;9.05;3.22;;;;;;;;;;5052779;28;20032;-72
2022/08/09 18:07:31;;;;;;;3.30;2.75;;;;;;;;;;5052965;28;20037;-72
2022/08/09 18:10:35;;;;;;;5.85;3.05;;;;;;;;;;5052348;28;20041;-73
2022/08/09 18:13:40;;;;;;;4.32;2.92;;;;;;;;;;5053077;28;20037;-72
2022/08/09 18:16:45;;;;;;;3.83;2.40;;;;;;;;;;5052720;28;20045;-73